Hlavní strana
METAR-TAF:

METAR-TAF

Letiště :

Djanet, Alžírsko

zeměpisná šířka: 24-33N, zeměpisná délka: 009-28E, výška: 1054 m

Aktuální stav počasí

Zpráva byla vytvořena před 11 minutami, v 21:00 UTC
Východoseverovýchodní vítr 3 kt
Teplota 14°C
Vlhkost vzduchu 10%
Tlak 1026 hPa
Viditelnost 10 km a více
Žádná oblačnost pod 1500 m, nevyskytují se cumulonimby.

METAR: DAAJ 252100Z 07003KT CAVOK 14/M17 Q1026

Čas: 22:11 (21:11 UTC)

Předpověď počasí

Zpráva byla vytvořena před 4 hodinami a 11 minutami, v 17:00 UTC
Předpověď platná od 25 v 18 UTC do 26 v 18 UTC
Jihojihovýchodní vítr 5 kt
Viditelnost 10 km a více
Žádná oblačnost pod 1500 m, nevyskytují se cumulonimby.

TAF: DAAJ 251700Z 2518/2618 16005KT CAVOK

Stav a předpovědi počasí z více než 4 000 letišť (zprávy METAR a TAF).

Červené a žluté tečky na mapě představují dostupné meteorologické stanice.

Když kurzor umístíte na tečku, zobrazí se název stanice.

Pak kliknutím zobrazíte stav a předpověď počasí.

Chcete-li změnit mapu, kliknutím na zelené tlačítko se znaménkem +mapu přiblížíte, kliknutím na zelené tlačítko se znaménkem – mapu oddálíte a kliknutím na zelené šipky přejdete na sousední mapy.


METAR-TAF: